Time;durP1;ratioP1;P1;durP2;ratioP2;P2;SDS_P1;SDS_P2;PMS_P1;PMS_P2;Temp;Humidity;BMP_temperature;BMP_pressure;BME280_temperature;BME280_humidity;BME280_pressure;Samples;Min_cycle;Max_cycle;Signal;HPM_P1;HPM_P2
2023/12/04 00:00:35;;;;;;;60.85;48.53;;;10.50;99.90;;;;;;4986033;28;20413;-67
2023/12/04 00:03:01;;;;;;;66.70;50.78;;;10.30;99.90;;;;;;4985968;28;20061;-67
2023/12/04 00:05:26;;;;;;;59.47;47.20;;;10.50;99.90;;;;;;4986103;28;20042;-67
2023/12/04 00:07:52;;;;;;;63.10;48.15;;;10.40;99.90;;;;;;4993500;28;20748;-67
2023/12/04 00:10:17;;;;;;;144.52;49.00;;;11.90;99.90;;;;;;5002672;28;20046;-67
2023/12/04 00:12:43;;;;;;;58.25;48.33;;;10.10;99.90;;;;;;4985797;28;20066;-68
2023/12/04 00:15:09;;;;;;;63.92;48.90;;;10.10;99.90;;;;;;4986111;28;20488;-66
2023/12/04 00:17:39;;;;;;;51.67;45.97;;;10.20;99.90;;;;;;4986113;28;20073;-68
2023/12/04 00:20:06;;;;;;;51.50;45.85;;;10.50;99.90;;;;;;4984991;28;20046;-67
2023/12/04 00:22:31;;;;;;;54.67;48.55;;;10.10;99.90;;;;;;4985487;28;20050;-67
2023/12/04 00:24:57;;;;;;;58.25;48.58;;;10.00;99.90;;;;;;4986349;28;20065;-67
2023/12/04 00:27:26;;;;;;;56.10;46.75;;;10.00;99.90;;;;;;4985985;28;20035;-67
2023/12/04 00:29:52;;;;;;;61.78;50.22;;;10.50;99.90;;;;;;4987314;28;20042;-67
2023/12/04 00:32:18;;;;;;;55.92;47.13;;;10.00;99.90;;;;;;4988028;28;20043;-67
2023/12/04 00:34:43;;;;;;;56.75;48.60;;;10.00;99.90;;;;;;4989913;28;20046;-67
2023/12/04 00:37:09;;;;;;;52.80;42.00;;;10.10;99.90;;;;;;4990269;28;20513;-67
2023/12/04 00:39:34;;;;;;;55.70;44.95;;;10.60;99.90;;;;;;4989536;28;20551;-67
2023/12/04 00:42:00;;;;;;;59.38;46.03;;;10.00;99.90;;;;;;4989149;28;20497;-67
2023/12/04 00:44:25;;;;;;;55.97;47.28;;;10.00;99.90;;;;;;4988347;28;20046;-67
2023/12/04 00:46:51;;;;;;;60.55;48.17;;;9.90;99.90;;;;;;4989259;28;20443;-67
2023/12/04 00:49:17;;;;;;;58.55;45.90;;;10.10;99.90;;;;;;4988936;28;20150;-67
2023/12/04 00:51:42;;;;;;;52.70;44.22;;;10.00;99.90;;;;;;4989255;28;20041;-68
2023/12/04 00:54:08;;;;;;;52.00;44.30;;;11.10;99.90;;;;;;4989100;28;20042;-68
2023/12/04 00:56:34;;;;;;;59.05;46.17;;;10.10;99.90;;;;;;4988955;28;20404;-67
2023/12/04 00:58:59;;;;;;;56.58;46.42;;;10.70;99.90;;;;;;4989050;28;20038;-67
2023/12/04 01:01:25;;;;;;;52.72;46.17;;;10.60;99.90;;;;;;4990869;28;20058;-67
2023/12/04 01:03:50;;;;;;;62.17;50.33;;;10.70;99.90;;;;;;5005968;28;20034;-67
2023/12/04 01:06:22;;;;;;;54.30;47.25;;;10.10;99.90;;;;;;4989041;28;20081;-68
2023/12/04 01:08:48;;;;;;;58.40;48.50;;;10.60;99.90;;;;;;4988343;28;20082;-68
2023/12/04 01:11:15;;;;;;;58.58;48.47;;;10.40;99.90;;;;;;4988827;28;20080;-68
2023/12/04 01:13:41;;;;;;;67.32;50.05;;;10.20;99.90;;;;;;4988897;28;20030;-68
2023/12/04 01:16:08;;;;;;;59.60;47.33;;;10.70;99.90;;;;;;4989297;28;20516;-68
2023/12/04 01:18:33;;;;;;;50.92;43.83;;;10.70;99.90;;;;;;4988236;28;20042;-68
2023/12/04 01:20:59;;;;;;;48.33;43.22;;;10.00;99.90;;;;;;4988346;28;20105;-68
2023/12/04 01:23:24;;;;;;;51.22;45.58;;;10.00;99.90;;;;;;4987557;28;20082;-68
2023/12/04 01:25:50;;;;;;;55.25;46.88;;;10.60;99.90;;;;;;5002593;28;20053;-69
2023/12/04 01:28:16;;;;;;;59.72;48.35;;;10.30;99.90;;;;;;4993306;28;20042;-69
2023/12/04 01:30:41;;;;;;;56.53;48.35;;;10.30;99.90;;;;;;5003542;28;20116;-63
2023/12/04 01:33:08;;;;;;;68.32;51.72;;;10.10;99.90;;;;;;4988719;28;20034;-64
2023/12/04 01:35:33;;;;;;;64.75;52.75;;;10.50;99.90;;;;;;4988324;28;20480;-63
2023/12/04 01:37:59;;;;;;;61.67;49.25;;;10.10;99.90;;;;;;4987708;28;20077;-64
2023/12/04 01:40:25;;;;;;;63.05;48.45;;;10.70;99.90;;;;;;4988097;28;20050;-64
2023/12/04 01:42:51;;;;;;;64.50;49.05;;;10.70;99.90;;;;;;4999161;28;20070;-64
2023/12/04 01:45:16;;;;;;;69.53;54.22;;;10.70;99.90;;;;;;4987988;28;20085;-65
2023/12/04 01:47:42;;;;;;;71.22;56.55;;;10.70;99.90;;;;;;4987036;28;20104;-64
2023/12/04 01:50:09;;;;;;;64.53;50.55;;;10.30;99.90;;;;;;4988341;28;20050;-65
2023/12/04 01:52:35;;;;;;;55.53;46.88;;;10.00;99.90;;;;;;4988152;28;20038;-64
2023/12/04 01:55:02;;;;;;;81.95;56.03;;;10.60;99.90;;;;;;4987581;28;20138;-67
2023/12/04 01:57:28;;;;;;;62.80;52.33;;;10.70;99.90;;;;;;4992493;28;20100;-65
2023/12/04 01:59:53;;;;;;;61.05;50.85;;;10.80;99.90;;;;;;5022566;28;20085;-65
2023/12/04 02:02:20;;;;;;;67.53;52.17;;;10.70;99.90;;;;;;5007425;28;20066;-65
2023/12/04 02:04:46;;;;;;;63.80;51.95;;;10.50;99.90;;;;;;4989292;28;20145;-65
2023/12/04 02:07:11;;;;;;;63.00;52.28;;;10.70;99.90;;;;;;4987994;28;20113;-66
2023/12/04 02:09:37;;;;;;;67.97;52.97;;;10.20;99.90;;;;;;4988004;28;20038;-66
2023/12/04 02:12:03;;;;;;;76.18;54.22;;;10.40;99.90;;;;;;4987535;28;20837;-67
2023/12/04 02:14:29;;;;;;;72.68;54.88;;;10.10;99.90;;;;;;4987899;28;20424;-66
2023/12/04 02:16:55;;;;;;;67.88;52.35;;;10.70;99.90;;;;;;4986030;28;20050;-66
2023/12/04 02:19:21;;;;;;;63.47;49.60;;;10.80;99.90;;;;;;4987712;28;20038;-66
2023/12/04 02:21:47;;;;;;;64.68;49.65;;;10.10;99.90;;;;;;4987168;28;20048;-66
2023/12/04 02:24:12;;;;;;;65.85;53.15;;;10.60;99.90;;;;;;4987394;28;20453;-65
2023/12/04 02:26:49;;;;;;;64.88;50.65;;;10.50;99.90;;;;;;4987718;28;20560;-67
2023/12/04 02:29:19;;;;;;;;;;;10.30;99.90;;;;;;4970688;28;20054;-66
2023/12/04 02:31:44;;;;;;;71.30;55.65;;;10.20;99.90;;;;;;4987374;28;19921;-66
2023/12/04 02:34:13;;;;;;;66.90;55.17;;;10.80;99.90;;;;;;4987002;28;20053;-66
2023/12/04 02:36:41;;;;;;;72.93;59.67;;;10.30;99.90;;;;;;5002381;28;20349;-66
2023/12/04 02:39:07;;;;;;;78.32;58.42;;;10.60;99.90;;;;;;4986923;28;20056;-66
2023/12/04 02:41:32;;;;;;;73.18;54.30;;;10.30;99.90;;;;;;4987459;28;20046;-68
2023/12/04 02:43:58;;;;;;;74.30;52.05;;;10.20;99.90;;;;;;4987170;28;20065;-68
2023/12/04 02:46:23;;;;;;;65.82;53.25;;;10.80;99.90;;;;;;4986875;28;20046;-68
2023/12/04 02:48:49;;;;;;;68.45;51.97;;;10.70;99.90;;;;;;4987306;28;20045;-68
2023/12/04 02:51:14;;;;;;;77.35;54.42;;;10.70;99.90;;;;;;4970243;28;20096;-68
2023/12/04 02:53:40;;;;;;;78.47;54.28;;;10.70;99.90;;;;;;4985089;28;20101;-69
2023/12/04 02:56:06;;;;;;;64.88;51.03;;;10.40;99.90;;;;;;4987191;28;20169;-69
2023/12/04 02:58:34;;;;;;;64.10;49.13;;;10.60;99.90;;;;;;4993722;28;20039;-69
2023/12/04 03:00:59;;;;;;;77.55;58.50;;;10.60;99.90;;;;;;4986493;28;20058;-69
2023/12/04 03:03:25;;;;;;;73.47;57.22;;;10.80;99.90;;;;;;4998626;28;20054;-69
2023/12/04 03:05:50;;;;;;;77.35;56.13;;;10.50;99.90;;;;;;5006654;28;20168;-70
2023/12/04 03:08:16;;;;;;;81.07;55.97;;;10.10;99.90;;;;;;4993758;28;20038;-69
2023/12/04 03:10:41;;;;;;;74.88;54.72;;;10.20;99.90;;;;;;4985237;28;20046;-69
2023/12/04 03:13:07;;;;;;;70.47;53.50;;;10.40;99.90;;;;;;4985247;28;20088;-69
2023/12/04 03:15:32;;;;;;;75.10;54.35;;;10.40;99.90;;;;;;4985410;28;20054;-69
2023/12/04 03:18:00;;;;;;;73.43;54.42;;;10.10;99.90;;;;;;4984988;28;20046;-70
2023/12/04 03:20:26;;;;;;;81.20;55.72;;;10.70;99.90;;;;;;5001630;28;20391;-70
2023/12/04 03:22:51;;;;;;;68.95;53.20;;;10.70;99.90;;;;;;4984952;28;20507;-69
2023/12/04 03:25:17;;;;;;;77.43;53.90;;;10.80;99.90;;;;;;4984741;28;20059;-69
2023/12/04 03:27:43;;;;;;;78.85;60.33;;;10.50;99.90;;;;;;4985982;28;20038;-70
2023/12/04 03:30:09;;;;;;;84.25;58.47;;;10.20;99.90;;;;;;4985330;28;20038;-69
2023/12/04 03:32:34;;;;;;;81.13;57.15;;;10.30;99.90;;;;;;4985084;28;20547;-69
2023/12/04 03:35:01;;;;;;;83.07;55.05;;;10.80;99.90;;;;;;4985270;28;20058;-69
2023/12/04 03:37:26;;;;;;;90.78;57.67;;;10.30;99.90;;;;;;4984793;28;20571;-69
2023/12/04 03:39:52;;;;;;;84.22;57.67;;;10.20;99.90;;;;;;4986508;28;20053;-69
2023/12/04 03:42:17;;;;;;;78.68;56.42;;;10.80;99.90;;;;;;4984930;28;20042;-69
2023/12/04 03:44:43;;;;;;;82.55;56.65;;;10.60;99.90;;;;;;4985040;28;20070;-69
2023/12/04 03:47:08;;;;;;;78.80;55.47;;;10.60;99.90;;;;;;4984756;28;20461;-68
2023/12/04 03:49:34;;;;;;;81.43;54.78;;;10.30;99.90;;;;;;4984486;28;20121;-66
2023/12/04 03:51:59;;;;;;;83.85;54.90;;;10.80;99.90;;;;;;4984837;28;20042;-70
2023/12/04 03:54:25;;;;;;;84.70;56.20;;;10.60;99.90;;;;;;4985934;28;20050;-71
2023/12/04 03:56:51;;;;;;;94.75;59.70;;;10.20;99.90;;;;;;4984760;28;20078;-71
2023/12/04 03:59:16;;;;;;;81.68;57.13;;;10.30;99.90;;;;;;5000955;28;20047;-71
2023/12/04 04:01:42;;;;;;;80.75;56.25;;;10.70;99.90;;;;;;4984670;28;20487;-71
2023/12/04 04:04:07;;;;;;;133.05;50.88;;;10.60;99.90;;;;;;5000886;28;20050;-71
2023/12/04 04:06:33;;;;;;;75.32;55.90;;;10.90;99.90;;;;;;4988481;28;20065;-71
2023/12/04 04:08:58;;;;;;;75.80;56.38;;;10.90;99.90;;;;;;4988662;28;20333;-71
2023/12/04 04:11:24;;;;;;;84.60;58.28;;;10.80;99.90;;;;;;4989007;28;20046;-70
2023/12/04 04:13:49;;;;;;;81.82;60.33;;;10.70;99.90;;;;;;4993932;28;20038;-69
2023/12/04 04:16:16;;;;;;;79.47;56.60;;;10.30;99.90;;;;;;4990078;28;20508;-70
2023/12/04 04:18:42;;;;;;;75.35;58.03;;;10.40;99.90;;;;;;4989501;28;20053;-71
2023/12/04 04:21:08;;;;;;;76.30;56.63;;;10.60;99.90;;;;;;4990048;28;20042;-70
2023/12/04 04:23:34;;;;;;;71.20;56.88;;;10.20;99.90;;;;;;4988102;28;20035;-70
2023/12/04 04:25:59;;;;;;;69.65;56.03;;;10.70;99.90;;;;;;4988441;28;20090;-70
2023/12/04 04:28:25;;;;;;;69.65;52.75;;;10.70;99.90;;;;;;4988136;28;20489;-70
2023/12/04 04:30:50;;;;;;;73.90;51.38;;;10.80;99.90;;;;;;5010112;28;20049;-70
2023/12/04 04:33:17;;;;;;;65.80;49.80;;;10.90;99.90;;;;;;4989284;28;20045;-70
2023/12/04 04:35:43;;;;;;;76.45;53.85;;;10.30;99.90;;;;;;4989765;28;20050;-70
2023/12/04 04:38:09;;;;;;;69.25;54.40;;;10.50;99.90;;;;;;4987665;28;20067;-69
2023/12/04 04:40:34;;;;;;;73.85;50.58;;;10.30;99.90;;;;;;4989194;28;20476;-69
2023/12/04 04:43:00;;;;;;;76.05;57.80;;;10.60;99.90;;;;;;4987943;28;20081;-69
2023/12/04 04:45:26;;;;;;;82.28;59.03;;;10.20;99.90;;;;;;4989667;28;20042;-70
2023/12/04 04:47:51;;;;;;;71.97;55.88;;;10.20;99.90;;;;;;4987958;28;20057;-69
2023/12/04 04:50:17;;;;;;;68.32;55.53;;;10.50;99.90;;;;;;4988255;28;20045;-69
2023/12/04 04:52:43;;;;;;;79.78;56.92;;;10.30;99.90;;;;;;4987102;28;20101;-69
2023/12/04 04:55:10;;;;;;;73.38;53.83;;;10.80;99.90;;;;;;4988277;28;20080;-69
2023/12/04 04:57:36;;;;;;;79.05;57.25;;;10.90;99.90;;;;;;4989171;28;20081;-70
2023/12/04 05:00:01;;;;;;;76.22;57.95;;;10.40;99.90;;;;;;4988884;28;20078;-65
2023/12/04 05:02:27;;;;;;;69.82;54.95;;;10.80;99.90;;;;;;4988628;28;20186;-65
2023/12/04 05:04:53;;;;;;;70.85;58.40;;;10.50;99.90;;;;;;4988930;28;20054;-65
2023/12/04 05:07:18;;;;;;;62.47;50.15;;;10.90;99.90;;;;;;4987224;28;20050;-65
2023/12/04 05:09:44;;;;;;;66.28;51.00;;;10.90;99.90;;;;;;4986558;28;20058;-64
2023/12/04 05:12:09;;;;;;;67.07;50.90;;;10.90;99.90;;;;;;4988597;28;20050;-65
2023/12/04 05:14:35;;;;;;;68.45;53.00;;;10.30;99.90;;;;;;4988754;28;20046;-65
2023/12/04 05:17:00;;;;;;;67.20;49.63;;;10.90;99.90;;;;;;4987721;28;20413;-65
2023/12/04 05:19:26;;;;;;;62.85;49.63;;;10.30;99.90;;;;;;4988425;28;20036;-66
2023/12/04 05:21:51;;;;;;;71.50;55.03;;;10.30;99.90;;;;;;4988344;28;20046;-64
2023/12/04 05:24:17;;;;;;;77.68;56.72;;;10.40;99.90;;;;;;4986708;28;20050;-64
2023/12/04 05:26:43;;;;;;;62.88;53.10;;;10.90;99.90;;;;;;4988224;28;20047;-65
2023/12/04 05:29:09;;;;;;;69.55;56.70;;;10.40;99.90;;;;;;4987604;28;20042;-64
2023/12/04 05:31:34;;;;;;;68.57;48.90;;;10.40;99.90;;;;;;4987990;28;20065;-64
2023/12/04 05:34:00;;;;;;;74.38;52.85;;;10.90;99.90;;;;;;4988601;28;20053;-63
2023/12/04 05:36:25;;;;;;;64.50;51.10;;;11.00;99.90;;;;;;4987814;28;20050;-64
2023/12/04 05:38:53;;;;;;;74.25;54.92;;;10.50;99.90;;;;;;4987471;28;20488;-65
2023/12/04 05:41:19;;;;;;;75.88;53.33;;;10.90;99.90;;;;;;4987774;28;20069;-64
2023/12/04 05:43:44;;;;;;;74.78;49.78;;;11.00;99.90;;;;;;4988757;28;20082;-64
2023/12/04 05:46:10;;;;;;;61.85;48.13;;;10.40;99.90;;;;;;4994738;28;20490;-65
2023/12/04 05:48:35;;;;;;;64.97;49.13;;;10.90;99.90;;;;;;4987625;28;20603;-66
2023/12/04 05:51:01;;;;;;;73.85;52.38;;;10.60;99.90;;;;;;4986613;28;20076;-64
2023/12/04 05:53:26;;;;;;;61.38;50.83;;;10.70;99.90;;;;;;4986996;28;20050;-64
2023/12/04 05:55:52;;;;;;;61.75;49.40;;;11.00;99.90;;;;;;4986493;28;20493;-64
2023/12/04 05:58:17;;;;;;;58.35;46.50;;;10.40;99.90;;;;;;4988406;28;20821;-63
2023/12/04 06:00:43;;;;;;;60.80;48.15;;;11.10;99.90;;;;;;4989981;28;20101;-64
2023/12/04 06:03:09;;;;;;;63.90;49.63;;;10.40;99.90;;;;;;4986563;28;20034;-64
2023/12/04 06:05:34;;;;;;;65.68;49.20;;;11.00;99.90;;;;;;4987898;28;20054;-64
2023/12/04 06:08:00;;;;;;;63.58;48.83;;;10.50;99.90;;;;;;4986643;28;20496;-64
2023/12/04 06:10:25;;;;;;;63.08;50.53;;;10.80;99.90;;;;;;4985058;28;20052;-69
2023/12/04 06:12:51;;;;;;;65.85;50.83;;;10.80;99.90;;;;;;4987185;28;20177;-70
2023/12/04 06:15:17;;;;;;;61.95;50.60;;;10.90;99.90;;;;;;4988342;28;20124;-69
2023/12/04 06:17:42;;;;;;;69.85;50.70;;;10.90;99.90;;;;;;5022232;28;20052;-69
2023/12/04 06:20:08;;;;;;;64.65;52.83;;;10.90;99.90;;;;;;4990412;28;20112;-69
2023/12/04 06:22:34;;;;;;;55.33;48.05;;;11.00;99.90;;;;;;4983484;28;20128;-69
2023/12/04 06:25:00;;;;;;;61.70;49.90;;;11.00;99.90;;;;;;4983247;28;20141;-69
2023/12/04 06:27:26;;;;;;;63.72;53.33;;;10.90;99.90;;;;;;4985380;28;20453;-68
2023/12/04 06:29:52;;;;;;;55.85;47.42;;;11.20;98.80;;;;;;4987160;28;20046;-69
2023/12/04 06:32:18;;;;;;;62.17;52.55;;;10.50;14.30;;;;;;5000760;28;20675;-69
2023/12/04 06:34:44;;;;;;;61.13;53.97;;;11.00;1.00;;;;;;4987386;28;20046;-68
2023/12/04 06:37:11;;;;;;;58.15;51.22;;;10.80;1.00;;;;;;4986863;28;20455;-69
2023/12/04 06:39:38;;;;;;;52.58;46.83;;;10.60;99.90;;;;;;4979240;28;20456;-70
2023/12/04 06:42:06;;;;;;;56.90;50.25;;;10.50;99.90;;;;;;4989087;28;20096;-69
2023/12/04 06:44:32;;;;;;;59.30;50.75;;;10.70;69.10;;;;;;4983102;28;20076;-69
2023/12/04 06:47:01;;;;;;;60.60;49.97;;;10.90;1.00;;;;;;4978534;28;20042;-69
2023/12/04 06:49:31;;;;;;;56.22;49.72;;;11.00;99.90;;;;;;4972725;28;20492;-69
2023/12/04 06:51:57;;;;;;;56.40;49.97;;;10.60;99.90;;;;;;4978988;28;20501;-69
2023/12/04 06:54:22;;;;;;;58.97;49.30;;;11.00;99.90;;;;;;4974596;28;20097;-69
2023/12/04 06:56:48;;;;;;;55.88;49.80;;;10.70;1.00;;;;;;4981858;28;20046;-69
2023/12/04 06:59:14;;;;;;;55.88;49.50;;;10.60;1.00;;;;;;4989469;28;20049;-69
2023/12/04 07:01:40;;;;;;;60.38;50.08;;;10.50;99.90;;;;;;4980500;28;20124;-69
2023/12/04 07:04:09;;;;;;;53.90;48.05;;;10.40;99.90;;;;;;4986675;28;20473;-72
2023/12/04 07:06:37;;;;;;;55.25;48.67;;;10.50;99.90;;;;;;4978866;28;20047;-70
2023/12/04 07:09:03;;;;;;;60.28;46.45;;;10.70;1.00;;;;;;5015665;28;20050;-69
2023/12/04 07:11:28;;;;;;;54.75;46.95;;;11.00;1.00;;;;;;4980012;28;20043;-70
2023/12/04 07:13:54;;;;;;;54.45;48.53;;;11.00;99.90;;;;;;4998117;28;20053;-69
2023/12/04 07:16:19;;;;;;;54.42;48.47;;;10.70;99.90;;;;;;4984238;28;20724;-68
2023/12/04 07:18:45;;;;;;;51.85;45.90;;;11.00;99.90;;;;;;4984655;28;20173;-70
2023/12/04 07:21:11;;;;;;;56.75;50.70;;;10.50;70.30;;;;;;4980715;28;20822;-65
2023/12/04 07:23:37;;;;;;;54.08;48.47;;;10.60;1.00;;;;;;4984132;28;20512;-67
2023/12/04 07:26:03;;;;;;;56.83;50.85;;;10.90;1.00;;;;;;4985038;28;20050;-65
2023/12/04 07:28:29;;;;;;;54.22;48.45;;;10.70;99.90;;;;;;4984012;28;20077;-64
2023/12/04 07:30:55;;;;;;;54.17;47.67;;;11.00;99.90;;;;;;4984503;28;20549;-64
2023/12/04 07:33:21;;;;;;;51.22;45.70;;;10.90;99.90;;;;;;4985447;28;20103;-64
2023/12/04 07:35:46;;;;;;;50.95;45.63;;;10.70;99.90;;;;;;4983172;28;20049;-65
2023/12/04 07:38:12;;;;;;;53.05;47.25;;;10.50;31.80;;;;;;4985099;28;20085;-63
2023/12/04 07:40:38;;;;;;;47.92;42.83;;;11.10;1.00;;;;;;4983680;28;20571;-64
2023/12/04 07:43:03;;;;;;;53.28;44.85;;;11.00;1.00;;;;;;4981396;28;20046;-65
2023/12/04 07:45:29;;;;;;;47.65;41.88;;;10.90;99.90;;;;;;4982502;28;20098;-65
2023/12/04 07:47:55;;;;;;;47.17;42.35;;;10.90;99.90;;;;;;4983680;28;20050;-65
2023/12/04 07:50:20;;;;;;;49.17;43.97;;;10.90;99.90;;;;;;4984879;28;20566;-65
2023/12/04 07:52:46;;;;;;;46.17;41.17;;;11.00;99.90;;;;;;4985982;28;20389;-64
2023/12/04 07:55:12;;;;;;;49.28;44.03;;;11.00;99.90;;;;;;4985052;28;20129;-66
2023/12/04 07:57:38;;;;;;;43.70;39.05;;;10.60;99.90;;;;;;4983985;28;20042;-66
2023/12/04 08:00:04;;;;;;;45.15;40.45;;;11.10;1.00;;;;;;4983307;28;20054;-65
2023/12/04 08:02:29;;;;;;;47.50;42.40;;;10.90;1.00;;;;;;4983750;28;20136;-65
2023/12/04 08:04:55;;;;;;;48.60;41.72;;;10.90;1.00;;;;;;4978320;28;20061;-64
2023/12/04 08:07:20;;;;;;;45.85;40.83;;;10.50;1.00;;;;;;4980478;28;20046;-66
2023/12/04 08:09:46;;;;;;;52.03;43.72;;;10.60;99.90;;;;;;4982723;28;20066;-63
2023/12/04 08:12:11;;;;;;;47.75;42.58;;;10.60;99.90;;;;;;4981895;28;21168;-64
2023/12/04 08:14:37;;;;;;;46.25;41.35;;;11.00;99.90;;;;;;4975547;28;20057;-65
2023/12/04 08:17:03;;;;;;;41.05;36.85;;;10.60;99.90;;;;;;4976216;28;20046;-65
2023/12/04 08:19:28;;;;;;;45.95;40.95;;;10.60;45.70;;;;;;4976435;28;20120;-64
2023/12/04 08:21:54;;;;;;;45.17;40.50;;;10.60;28.10;;;;;;4981750;28;20485;-64
2023/12/04 08:24:19;;;;;;;41.72;37.42;;;10.90;1.00;;;;;;4979828;28;20042;-65
2023/12/04 08:26:45;;;;;;;44.15;39.45;;;10.60;1.00;;;;;;4982576;28;20045;-67
2023/12/04 08:29:11;;;;;;;43.97;39.47;;;10.60;1.00;;;;;;4982623;28;20129;-64
2023/12/04 08:31:37;;;;;;;42.97;38.65;;;10.70;99.90;;;;;;4980140;28;20690;-67
2023/12/04 08:34:02;;;;;;;40.85;36.53;;;10.50;99.90;;;;;;4983953;28;20148;-67
2023/12/04 08:36:28;;;;;;;45.70;40.33;;;11.10;99.90;;;;;;4984178;28;20049;-67
2023/12/04 08:38:54;;;;;;;43.25;38.80;;;11.10;99.90;;;;;;4982311;28;20136;-67
2023/12/04 08:41:20;;;;;;;45.00;38.15;;;11.10;99.90;;;;;;4983547;28;20058;-67
2023/12/04 08:43:45;;;;;;;41.08;36.58;;;11.00;45.40;;;;;;4984618;28;20401;-67
2023/12/04 08:46:14;;;;;;;41.78;37.38;;;11.10;1.00;;;;;;4984288;28;20092;-66
2023/12/04 08:48:41;;;;;;;39.72;35.55;;;10.70;1.00;;;;;;4981149;28;20627;-67
2023/12/04 08:51:15;;;;;;;42.10;37.78;;;10.60;1.00;;;;;;4980049;28;20042;-66
2023/12/04 08:53:41;;;;;;;38.88;34.63;;;11.10;1.00;;;;;;4985893;28;20043;-68
2023/12/04 08:56:08;;;;;;;37.30;33.42;;;10.70;99.90;;;;;;4986065;28;20038;-68
2023/12/04 08:58:33;;;;;;;38.22;34.15;;;10.70;99.90;;;;;;5000074;28;20517;-67
2023/12/04 09:00:59;;;;;;;37.50;33.58;;;11.10;99.90;;;;;;4985015;28;20070;-67
2023/12/04 09:03:24;;;;;;;36.50;32.55;;;10.90;99.90;;;;;;4986521;28;20506;-68
2023/12/04 09:05:51;;;;;;;36.30;32.55;;;10.50;55.40;;;;;;4985552;28;20038;-67
2023/12/04 09:08:18;;;;;;;36.05;32.22;;;10.90;1.00;;;;;;4985342;28;20133;-67
2023/12/04 09:10:45;;;;;;;34.50;30.90;;;10.80;1.00;;;;;;4986321;28;20042;-67
2023/12/04 09:13:11;;;;;;;34.75;31.13;;;10.80;1.00;;;;;;4984422;28;20412;-67
2023/12/04 09:15:37;;;;;;;33.90;30.48;;;10.90;99.90;;;;;;4983000;28;20046;-67
2023/12/04 09:18:02;;;;;;;35.95;32.28;;;11.10;99.90;;;;;;4986219;28;20053;-67
2023/12/04 09:20:28;;;;;;;33.92;30.58;;;11.00;99.90;;;;;;4986155;28;20193;-67
2023/12/04 09:22:53;;;;;;;33.53;30.15;;;11.10;99.90;;;;;;4985850;28;20045;-68
2023/12/04 09:25:19;;;;;;;33.70;29.75;;;11.10;99.90;;;;;;4985849;28;20097;-67
2023/12/04 09:27:46;;;;;;;32.55;29.25;;;10.80;99.90;;;;;;4984775;28;20505;-67
2023/12/04 09:30:11;;;;;;;32.75;29.60;;;11.10;99.90;;;;;;4984586;28;20050;-67
2023/12/04 09:32:37;;;;;;;32.42;28.98;;;10.90;99.90;;;;;;4984874;28;20608;-67
2023/12/04 09:35:03;;;;;;;31.95;28.45;;;10.80;91.60;;;;;;4985634;28;20493;-67
2023/12/04 09:37:29;;;;;;;31.17;27.95;;;10.70;22.80;;;;;;4984382;28;20133;-67
2023/12/04 09:39:54;;;;;;;32.45;29.30;;;11.00;1.00;;;;;;4984514;28;20587;-67
2023/12/04 09:42:20;;;;;;;31.48;28.23;;;11.00;1.00;;;;;;4982271;28;20071;-64
2023/12/04 09:44:49;;;;;;;30.90;27.80;;;10.80;1.00;;;;;;4983503;28;20085;-63
2023/12/04 09:47:17;;;;;;;31.35;28.27;;;11.10;1.00;;;;;;4981896;28;20064;-64
2023/12/04 09:49:43;;;;;;;31.67;28.30;;;11.70;1.00;;;;;;4985287;28;20046;-63
2023/12/04 09:52:10;;;;;;;31.42;28.33;;;11.70;1.00;;;;;;4984782;28;20045;-64
2023/12/04 09:54:37;;;;;;;29.98;26.95;;;11.10;1.00;;;;;;4984838;28;20088;-63
2023/12/04 09:57:04;;;;;;;29.17;26.33;;;10.80;99.90;;;;;;4984056;28;20057;-63
2023/12/04 09:59:30;;;;;;;30.20;27.25;;;11.00;99.90;;;;;;4983890;28;20054;-62
2023/12/04 10:01:57;;;;;;;30.85;27.70;;;11.20;99.90;;;;;;4997927;28;20150;-65
2023/12/04 10:04:23;;;;;;;31.35;28.35;;;10.90;99.90;;;;;;4985485;28;20092;-64
2023/12/04 10:06:51;;;;;;;30.50;27.67;;;10.90;99.90;;;;;;4984615;28;20555;-63
2023/12/04 10:09:18;;;;;;;29.25;26.25;;;11.00;99.90;;;;;;4984155;28;20042;-63
2023/12/04 10:11:45;;;;;;;32.90;29.67;;;10.90;99.90;;;;;;4984793;28;20512;-64
2023/12/04 10:14:30;;;;;;;29.67;26.98;;;11.60;99.90;;;;;;4984460;28;20040;-62
2023/12/04 10:16:55;;;;;;;29.55;26.75;;;11.00;99.90;;;;;;4983929;28;20077;-63
2023/12/04 10:19:26;;;;;;;29.92;26.88;;;11.30;99.90;;;;;;4981847;28;20485;-63
2023/12/04 10:21:53;;;;;;;31.65;28.55;;;11.00;99.90;;;;;;4983860;28;20044;-63
2023/12/04 10:24:36;;;;;;;33.85;30.42;;;11.30;99.90;;;;;;4984981;28;20057;-63
2023/12/04 10:27:06;;;;;;;30.25;27.10;;;11.20;99.90;;;;;;4985307;28;20038;-64
2023/12/04 10:29:42;;;;;;;30.60;27.60;;;11.10;99.90;;;;;;4984860;28;20153;-64
2023/12/04 10:32:08;;;;;;;29.48;26.42;;;11.30;99.90;;;;;;4983481;28;20047;-64
2023/12/04 10:34:33;;;;;;;28.40;25.50;;;11.30;99.90;;;;;;4983992;28;20038;-64
2023/12/04 10:36:59;;;;;;;31.13;27.98;;;11.30;99.90;;;;;;4983342;28;20042;-65
2023/12/04 10:39:28;;;;;;;28.83;26.10;;;11.00;99.90;;;;;;4983282;28;20050;-64
2023/12/04 10:42:03;;;;;;;29.55;26.75;;;11.10;99.90;;;;;;4982585;28;20104;-66
2023/12/04 10:44:32;;;;;;;29.13;26.40;;;11.30;97.40;;;;;;4980421;28;20034;-65
2023/12/04 10:47:01;;;;;;;29.20;26.40;;;11.40;94.80;;;;;;4982376;28;20072;-64
2023/12/04 10:49:31;;;;;;;29.30;26.60;;;11.10;92.30;;;;;;4983878;28;20100;-64
2023/12/04 10:51:59;;;;;;;27.55;24.95;;;11.40;68.00;;;;;;4983802;28;20051;-65
2023/12/04 10:54:26;;;;;;;28.05;25.35;;;11.20;70.90;;;;;;4983687;28;20046;-66
2023/12/04 10:56:53;;;;;;;28.90;26.17;;;11.10;99.10;;;;;;4983752;28;20556;-66
2023/12/04 10:59:23;;;;;;;28.55;25.85;;;11.40;54.60;;;;;;4982844;28;20050;-66
2023/12/04 11:01:50;;;;;;;27.50;25.00;;;11.40;79.50;;;;;;4981885;28;20058;-65
2023/12/04 11:04:17;;;;;;;28.50;25.80;;;11.40;47.70;;;;;;4982165;28;20050;-65
2023/12/04 11:06:47;;;;;;;28.15;25.58;;;11.70;30.40;;;;;;4999478;28;20865;-65
2023/12/04 11:09:13;;;;;;;28.25;25.60;;;11.20;36.30;;;;;;4979969;28;20212;-65
2023/12/04 11:11:43;;;;;;;27.73;24.95;;;11.10;26.20;;;;;;4984141;28;20068;-65
2023/12/04 11:14:11;;;;;;;28.45;25.80;;;11.20;18.30;;;;;;4981072;28;20073;-66
2023/12/04 11:16:57;;;;;;;27.85;25.15;;;11.20;20.80;;;;;;4984329;28;20127;-65
2023/12/04 11:19:29;;;;;;;28.75;26.05;;;11.30;15.40;;;;;;4981990;28;20042;-65
2023/12/04 11:21:58;;;;;;;27.95;25.25;;;11.40;11.30;;;;;;4997797;28;20050;-64
2023/12/04 11:24:24;;;;;;;26.65;24.25;;;11.20;15.30;;;;;;4981907;28;20124;-65
2023/12/04 11:26:50;;;;;;;28.70;25.73;;;11.20;5.30;;;;;;4981676;28;20034;-65
2023/12/04 11:29:17;;;;;;;29.10;26.45;;;11.60;1.00;;;;;;4982975;28;20052;-65
2023/12/04 11:31:43;;;;;;;29.50;24.60;;;11.40;1.00;;;;;;4983778;28;20569;-64
2023/12/04 11:34:12;;;;;;;26.73;24.30;;;11.40;1.00;;;;;;4985299;28;20034;-65
2023/12/04 11:36:38;;;;;;;29.23;26.33;;;11.20;1.00;;;;;;4984939;28;20124;-64
2023/12/04 11:39:09;;;;;;;27.33;24.65;;;11.40;1.00;;;;;;4985068;28;20512;-65
2023/12/04 11:41:37;;;;;;;26.50;23.95;;;11.50;1.00;;;;;;4982114;28;20096;-65
2023/12/04 11:44:03;;;;;;;28.00;25.40;;;11.50;1.00;;;;;;4983754;28;20065;-65
2023/12/04 11:46:31;;;;;;;28.08;24.73;;;11.30;1.00;;;;;;4982301;28;20471;-65
2023/12/04 11:49:28;;;;;;;28.13;25.52;;;11.30;1.00;;;;;;4979801;28;20771;-66
2023/12/04 11:51:55;;;;;;;26.13;23.73;;;11.30;1.00;;;;;;4982608;28;20034;-64
2023/12/04 11:54:24;;;;;;;25.58;23.02;;;11.20;5.20;;;;;;4985680;28;20412;-66
2023/12/04 11:56:59;;;;;;;27.98;25.02;;;11.50;17.90;;;;;;4984560;28;20456;-65
2023/12/04 11:59:24;;;;;;;27.67;24.98;;;11.30;41.60;;;;;;4983115;28;20452;-65
2023/12/04 12:01:51;;;;;;;25.90;23.48;;;11.20;55.10;;;;;;4982877;28;20108;-69
2023/12/04 12:04:17;;;;;;;26.77;24.27;;;11.30;62.60;;;;;;4997974;28;20702;-69
2023/12/04 12:06:44;;;;;;;27.63;25.05;;;11.30;48.60;;;;;;4981598;28;20038;-69
2023/12/04 12:09:09;;;;;;;26.02;23.52;;;11.40;26.90;;;;;;4982331;28;20057;-69
2023/12/04 12:11:36;;;;;;;26.65;24.15;;;11.10;38.50;;;;;;4984056;28;20043;-69
2023/12/04 12:14:01;;;;;;;26.52;24.02;;;11.10;31.00;;;;;;4984751;28;20150;-70
2023/12/04 12:16:27;;;;;;;26.95;24.42;;;11.30;1.50;;;;;;4983238;28;20890;-70
2023/12/04 12:18:53;;;;;;;32.00;29.08;;;11.10;1.00;;;;;;4983864;28;20524;-68
2023/12/04 12:21:19;;;;;;;32.10;28.83;;;11.00;1.00;;;;;;4982924;28;20065;-69
2023/12/04 12:23:44;;;;;;;29.88;26.88;;;11.10;1.00;;;;;;4984059;28;20054;-69